sensor_id;sensor_type;location;lat;lon;timestamp;pressure;altitude;pressure_sealevel;temperature;humidity
70011;BME280;59543;37.950;-122.338;2023-05-02T00:00:45;100676.28;;;13.41;60.01
70011;BME280;59543;37.950;-122.338;2023-05-02T00:03:11;100677.94;;;13.18;60.13
70011;BME280;59543;37.950;-122.338;2023-05-02T00:05:38;100672.69;;;13.16;60.49
70011;BME280;59543;37.950;-122.338;2023-05-02T00:08:05;100672.72;;;13.33;59.24
70011;BME280;59543;37.950;-122.338;2023-05-02T00:10:32;100672.34;;;13.03;60.68
70011;BME280;59543;37.950;-122.338;2023-05-02T00:12:58;100661.28;;;13.39;60.06
70011;BME280;59543;37.950;-122.338;2023-05-02T00:15:24;100659.22;;;13.57;58.31
70011;BME280;59543;37.950;-122.338;2023-05-02T00:17:52;100651.28;;;13.56;58.23
70011;BME280;59543;37.950;-122.338;2023-05-02T00:20:18;100662.59;;;13.35;58.06
70011;BME280;59543;37.950;-122.338;2023-05-02T00:22:44;100652.63;;;13.35;58.01
70011;BME280;59543;37.950;-122.338;2023-05-02T00:25:11;100660.06;;;13.41;57.96
70011;BME280;59543;37.950;-122.338;2023-05-02T00:27:41;100650.25;;;13.24;58.13
70011;BME280;59543;37.950;-122.338;2023-05-02T00:30:08;100650.41;;;12.98;59.68
70011;BME280;59543;37.950;-122.338;2023-05-02T00:32:34;100650.75;;;13.03;59.56
70011;BME280;59543;37.950;-122.338;2023-05-02T00:35:01;100643.44;;;12.87;59.86
70011;BME280;59543;37.950;-122.338;2023-05-02T00:37:27;100644.16;;;12.89;60.02
70011;BME280;59543;37.950;-122.338;2023-05-02T00:39:54;100641.28;;;13.07;59.60
70011;BME280;59543;37.950;-122.338;2023-05-02T00:42:20;100642.16;;;13.16;59.36
70011;BME280;59543;37.950;-122.338;2023-05-02T00:44:47;100641.47;;;13.22;58.81
70011;BME280;59543;37.950;-122.338;2023-05-02T00:47:14;100631.69;;;13.21;59.51
70011;BME280;59543;37.950;-122.338;2023-05-02T00:49:41;100637.09;;;13.37;58.15
70011;BME280;59543;37.950;-122.338;2023-05-02T00:52:08;100645.84;;;13.23;58.48
70011;BME280;59543;37.950;-122.338;2023-05-02T00:54:36;100643.47;;;12.95;59.28
70011;BME280;59543;37.950;-122.338;2023-05-02T00:57:04;100636.41;;;12.94;59.57
70011;BME280;59543;37.950;-122.338;2023-05-02T00:59:33;100628.63;;;12.91;59.52
70011;BME280;59543;37.950;-122.338;2023-05-02T01:02:30;100627.09;;;12.89;59.63
70011;BME280;59543;37.950;-122.338;2023-05-02T01:13:47;100630.13;;;12.77;59.58
70011;BME280;59543;37.950;-122.338;2023-05-02T01:16:21;100625.53;;;12.62;60.29
70011;BME280;59543;37.950;-122.338;2023-05-02T01:18:49;100627.25;;;12.71;60.37
70011;BME280;59543;37.950;-122.338;2023-05-02T01:21:16;100626.03;;;12.57;60.54
70011;BME280;59543;37.950;-122.338;2023-05-02T01:24:06;100617.38;;;12.45;60.59
70011;BME280;59543;37.950;-122.338;2023-05-02T01:29:10;100616.22;;;12.48;60.80
70011;BME280;59543;37.950;-122.338;2023-05-02T01:31:44;100626.50;;;12.44;61.44
70011;BME280;59543;37.950;-122.338;2023-05-02T01:34:16;100613.84;;;12.45;61.32
70011;BME280;59543;37.950;-122.338;2023-05-02T01:36:44;100618.56;;;12.34;62.45
70011;BME280;59543;37.950;-122.338;2023-05-02T01:39:15;100617.34;;;12.29;62.40
70011;BME280;59543;37.950;-122.338;2023-05-02T01:42:04;100622.44;;;12.40;62.52
70011;BME280;59543;37.950;-122.338;2023-05-02T01:44:31;100621.06;;;12.36;62.91
70011;BME280;59543;37.950;-122.338;2023-05-02T01:47:01;100624.81;;;12.43;62.73
70011;BME280;59543;37.950;-122.338;2023-05-02T01:49:31;100613.28;;;12.25;63.44
70011;BME280;59543;37.950;-122.338;2023-05-02T01:52:02;100614.97;;;12.26;63.07
70011;BME280;59543;37.950;-122.338;2023-05-02T01:54:30;100610.72;;;12.15;63.69
70011;BME280;59543;37.950;-122.338;2023-05-02T01:57:01;100608.34;;;12.12;63.52
70011;BME280;59543;37.950;-122.338;2023-05-02T01:59:30;100604.88;;;12.28;63.02
70011;BME280;59543;37.950;-122.338;2023-05-02T02:02:03;100602.19;;;11.94;64.06
70011;BME280;59543;37.950;-122.338;2023-05-02T02:04:31;100600.19;;;11.96;64.24
70011;BME280;59543;37.950;-122.338;2023-05-02T02:07:05;100600.84;;;11.89;64.46
70011;BME280;59543;37.950;-122.338;2023-05-02T02:09:32;100601.78;;;11.80;64.99
70011;BME280;59543;37.950;-122.338;2023-05-02T02:12:05;100602.41;;;11.74;65.25
70011;BME280;59543;37.950;-122.338;2023-05-02T02:14:42;100594.53;;;11.81;65.26
70011;BME280;59543;37.950;-122.338;2023-05-02T02:17:19;100592.75;;;11.89;64.86
70011;BME280;59543;37.950;-122.338;2023-05-02T02:19:47;100598.84;;;11.92;64.39
70011;BME280;59543;37.950;-122.338;2023-05-02T02:22:19;100594.63;;;11.97;64.24
70011;BME280;59543;37.950;-122.338;2023-05-02T02:24:47;100596.84;;;12.02;64.30
70011;BME280;59543;37.950;-122.338;2023-05-02T02:27:13;100598.53;;;12.03;64.54
70011;BME280;59543;37.950;-122.338;2023-05-02T02:29:40;100599.16;;;11.88;65.04
70011;BME280;59543;37.950;-122.338;2023-05-02T02:32:28;100601.16;;;11.60;65.05
70011;BME280;59543;37.950;-122.338;2023-05-02T02:34:54;100600.63;;;11.83;64.28
70011;BME280;59543;37.950;-122.338;2023-05-02T02:37:34;100593.16;;;11.77;64.78
70011;BME280;59543;37.950;-122.338;2023-05-02T02:51:12;100596.34;;;11.72;64.93
70011;BME280;59543;37.950;-122.338;2023-05-02T02:54:05;100607.94;;;11.64;64.19
70011;BME280;59543;37.950;-122.338;2023-05-02T02:56:40;100594.59;;;11.63;64.25
70011;BME280;59543;37.950;-122.338;2023-05-02T03:02:14;100598.47;;;11.34;65.47
70011;BME280;59543;37.950;-122.338;2023-05-02T03:04:43;100594.72;;;11.53;64.59
70011;BME280;59543;37.950;-122.338;2023-05-02T03:07:11;100598.44;;;11.60;64.31
70011;BME280;59543;37.950;-122.338;2023-05-02T03:09:46;100595.50;;;11.45;64.69
70011;BME280;59543;37.950;-122.338;2023-05-02T03:12:13;100592.41;;;11.58;63.93
70011;BME280;59543;37.950;-122.338;2023-05-02T03:14:39;100600.03;;;11.45;64.63
70011;BME280;59543;37.950;-122.338;2023-05-02T03:17:06;100599.41;;;11.51;64.22
70011;BME280;59543;37.950;-122.338;2023-05-02T03:19:36;100596.50;;;11.44;64.57
70011;BME280;59543;37.950;-122.338;2023-05-02T03:22:03;100604.84;;;11.59;64.34
70011;BME280;59543;37.950;-122.338;2023-05-02T03:24:29;100608.31;;;11.52;64.30
70011;BME280;59543;37.950;-122.338;2023-05-02T03:26:56;100611.41;;;11.57;63.84
70011;BME280;59543;37.950;-122.338;2023-05-02T03:29:24;100604.28;;;11.48;64.48
70011;BME280;59543;37.950;-122.338;2023-05-02T03:31:51;100605.75;;;11.42;65.01
70011;BME280;59543;37.950;-122.338;2023-05-02T03:34:17;100601.63;;;11.56;64.11
70011;BME280;59543;37.950;-122.338;2023-05-02T03:36:46;100599.56;;;11.50;64.59
70011;BME280;59543;37.950;-122.338;2023-05-02T03:39:12;100599.41;;;11.51;64.92
70011;BME280;59543;37.950;-122.338;2023-05-02T03:41:39;100598.41;;;11.52;64.67
70011;BME280;59543;37.950;-122.338;2023-05-02T03:44:06;100593.44;;;11.39;65.46
70011;BME280;59543;37.950;-122.338;2023-05-02T03:46:32;100597.13;;;11.38;65.28
70011;BME280;59543;37.950;-122.338;2023-05-02T03:48:58;100606.19;;;11.55;64.56
70011;BME280;59543;37.950;-122.338;2023-05-02T03:51:25;100598.25;;;11.54;64.28
70011;BME280;59543;37.950;-122.338;2023-05-02T03:53:51;100613.34;;;11.20;64.71
70011;BME280;59543;37.950;-122.338;2023-05-02T03:56:18;100604.69;;;11.35;64.52
70011;BME280;59543;37.950;-122.338;2023-05-02T03:58:45;100610.03;;;11.53;63.52
70011;BME280;59543;37.950;-122.338;2023-05-02T04:01:15;100608.38;;;11.34;64.62
70011;BME280;59543;37.950;-122.338;2023-05-02T04:03:42;100617.53;;;11.41;64.35
70011;BME280;59543;37.950;-122.338;2023-05-02T04:06:08;100616.19;;;11.45;64.09
70011;BME280;59543;37.950;-122.338;2023-05-02T04:08:34;100619.78;;;11.28;64.60
70011;BME280;59543;37.950;-122.338;2023-05-02T04:11:01;100622.91;;;11.41;63.84
70011;BME280;59543;37.950;-122.338;2023-05-02T04:13:27;100621.97;;;11.06;65.04
70011;BME280;59543;37.950;-122.338;2023-05-02T04:15:54;100622.88;;;11.15;64.79
70011;BME280;59543;37.950;-122.338;2023-05-02T04:18:20;100625.47;;;11.25;64.63
70011;BME280;59543;37.950;-122.338;2023-05-02T04:20:46;100617.06;;;11.28;64.60
70011;BME280;59543;37.950;-122.338;2023-05-02T04:23:12;100613.44;;;11.11;64.76
70011;BME280;59543;37.950;-122.338;2023-05-02T04:25:39;100616.22;;;11.01;65.02
70011;BME280;59543;37.950;-122.338;2023-05-02T04:28:05;100618.81;;;10.93;65.40
70011;BME280;59543;37.950;-122.338;2023-05-02T04:30:31;100622.25;;;11.03;64.83
70011;BME280;59543;37.950;-122.338;2023-05-02T04:32:58;100622.28;;;10.85;65.90
70011;BME280;59543;37.950;-122.338;2023-05-02T04:35:24;100611.81;;;10.64;66.92
70011;BME280;59543;37.950;-122.338;2023-05-02T04:37:50;100623.97;;;10.68;66.75
70011;BME280;59543;37.950;-122.338;2023-05-02T04:40:17;100630.44;;;10.93;65.70
70011;BME280;59543;37.950;-122.338;2023-05-02T04:42:43;100626.38;;;10.89;65.71
70011;BME280;59543;37.950;-122.338;2023-05-02T04:45:09;100621.03;;;10.97;65.53
70011;BME280;59543;37.950;-122.338;2023-05-02T04:47:35;100626.72;;;10.94;65.78
70011;BME280;59543;37.950;-122.338;2023-05-02T04:50:02;100630.13;;;10.96;65.81
70011;BME280;59543;37.950;-122.338;2023-05-02T04:52:29;100632.72;;;10.88;66.04
70011;BME280;59543;37.950;-122.338;2023-05-02T04:54:56;100629.66;;;11.01;65.36
70011;BME280;59543;37.950;-122.338;2023-05-02T04:57:22;100626.28;;;10.81;66.29
70011;BME280;59543;37.950;-122.338;2023-05-02T04:59:48;100622.28;;;10.85;66.43
70011;BME280;59543;37.950;-122.338;2023-05-02T05:02:14;100620.41;;;10.86;66.56
70011;BME280;59543;37.950;-122.338;2023-05-02T05:04:41;100626.09;;;10.83;66.79
70011;BME280;59543;37.950;-122.338;2023-05-02T05:07:07;100626.28;;;10.81;66.60
70011;BME280;59543;37.950;-122.338;2023-05-02T05:09:33;100627.28;;;10.80;66.82
70011;BME280;59543;37.950;-122.338;2023-05-02T05:11:59;100619.13;;;10.90;66.31
70011;BME280;59543;37.950;-122.338;2023-05-02T05:14:26;100614.81;;;10.79;66.33
70011;BME280;59543;37.950;-122.338;2023-05-02T05:16:53;100618.75;;;10.85;66.70
70011;BME280;59543;37.950;-122.338;2023-05-02T05:19:19;100617.59;;;10.87;66.19
70011;BME280;59543;37.950;-122.338;2023-05-02T05:21:45;100617.28;;;10.90;66.05
70011;BME280;59543;37.950;-122.338;2023-05-02T05:24:11;100624.56;;;10.98;65.86
70011;BME280;59543;37.950;-122.338;2023-05-02T05:26:37;100613.22;;;10.68;66.78
70011;BME280;59543;37.950;-122.338;2023-05-02T05:29:04;100617.59;;;10.69;66.93
70011;BME280;59543;37.950;-122.338;2023-05-02T05:31:30;100607.97;;;10.67;67.25
70011;BME280;59543;37.950;-122.338;2023-05-02T05:33:56;100615.28;;;10.74;67.23
70011;BME280;59543;37.950;-122.338;2023-05-02T05:36:23;100610.66;;;10.67;67.69
70011;BME280;59543;37.950;-122.338;2023-05-02T05:38:49;100606.13;;;10.67;67.75
70011;BME280;59543;37.950;-122.338;2023-05-02T05:41:16;100609.22;;;10.72;67.67
70011;BME280;59543;37.950;-122.338;2023-05-02T05:43:42;100606.75;;;10.79;67.75
70011;BME280;59543;37.950;-122.338;2023-05-02T05:46:08;100613.53;;;10.83;67.57
70011;BME280;59543;37.950;-122.338;2023-05-02T05:48:35;100612.75;;;10.91;67.23
70011;BME280;59543;37.950;-122.338;2023-05-02T05:51:04;100614.50;;;10.82;68.05
70011;BME280;59543;37.950;-122.338;2023-05-02T05:53:32;100608.59;;;10.79;68.23
70011;BME280;59543;37.950;-122.338;2023-05-02T05:55:58;100608.16;;;10.83;67.81
70011;BME280;59543;37.950;-122.338;2023-05-02T05:58:25;100609.00;;;10.84;67.42
70011;BME280;59543;37.950;-122.338;2023-05-02T06:00:51;100597.28;;;10.93;67.08
70011;BME280;59543;37.950;-122.338;2023-05-02T06:03:17;100598.31;;;10.74;67.60
70011;BME280;59543;37.950;-122.338;2023-05-02T06:05:43;100599.06;;;10.84;67.27
70011;BME280;59543;37.950;-122.338;2023-05-02T06:08:09;100601.22;;;10.81;67.23
70011;BME280;59543;37.950;-122.338;2023-05-02T06:10:36;100601.44;;;10.87;66.07
70011;BME280;59543;37.950;-122.338;2023-05-02T06:13:02;100598.06;;;10.85;65.81
70011;BME280;59543;37.950;-122.338;2023-05-02T06:15:28;100589.75;;;10.96;65.72
70011;BME280;59543;37.950;-122.338;2023-05-02T06:17:54;100600.22;;;10.82;66.53
70011;BME280;59543;37.950;-122.338;2023-05-02T06:20:21;100592.06;;;10.91;66.52
70011;BME280;59543;37.950;-122.338;2023-05-02T06:22:47;100584.78;;;10.84;66.55
70011;BME280;59543;37.950;-122.338;2023-05-02T06:25:13;100591.00;;;10.84;67.14
70011;BME280;59543;37.950;-122.338;2023-05-02T06:27:39;100595.38;;;10.85;67.13
70011;BME280;59543;37.950;-122.338;2023-05-02T06:30:06;100590.06;;;10.93;66.67
70011;BME280;59543;37.950;-122.338;2023-05-02T06:32:32;100590.75;;;10.95;66.21
70011;BME280;59543;37.950;-122.338;2023-05-02T06:34:59;100593.03;;;11.08;66.20
70011;BME280;59543;37.950;-122.338;2023-05-02T06:37:25;100587.13;;;11.05;66.14
70011;BME280;59543;37.950;-122.338;2023-05-02T06:39:51;100586.59;;;11.01;66.47
70011;BME280;59543;37.950;-122.338;2023-05-02T06:42:17;100587.16;;;10.87;67.37
70011;BME280;59543;37.950;-122.338;2023-05-02T06:44:44;100580.03;;;11.04;67.81
70011;BME280;59543;37.950;-122.338;2023-05-02T06:47:10;100580.91;;;11.04;68.53
70011;BME280;59543;37.950;-122.338;2023-05-02T06:49:36;100576.50;;;11.03;69.17
70011;BME280;59543;37.950;-122.338;2023-05-02T06:52:02;100582.06;;;11.02;69.07
70011;BME280;59543;37.950;-122.338;2023-05-02T06:54:28;100576.69;;;11.02;69.13
70011;BME280;59543;37.950;-122.338;2023-05-02T06:56:55;100581.06;;;11.03;68.85
70011;BME280;59543;37.950;-122.338;2023-05-02T06:59:21;100580.44;;;11.09;68.35
70011;BME280;59543;37.950;-122.338;2023-05-02T07:01:47;100578.53;;;11.01;68.60
70011;BME280;59543;37.950;-122.338;2023-05-02T07:04:13;100584.59;;;11.03;68.69
70011;BME280;59543;37.950;-122.338;2023-05-02T07:06:40;100580.59;;;11.07;68.50
70011;BME280;59543;37.950;-122.338;2023-05-02T07:09:06;100581.44;;;11.08;68.81
70011;BME280;59543;37.950;-122.338;2023-05-02T07:11:32;100580.84;;;10.96;70.15
70011;BME280;59543;37.950;-122.338;2023-05-02T07:13:58;100583.84;;;10.93;70.77
70011;BME280;59543;37.950;-122.338;2023-05-02T07:16:25;100573.44;;;10.98;70.53
70011;BME280;59543;37.950;-122.338;2023-05-02T07:18:51;100580.34;;;11.01;70.88
70011;BME280;59543;37.950;-122.338;2023-05-02T07:21:17;100577.94;;;10.89;70.96
70011;BME280;59543;37.950;-122.338;2023-05-02T07:23:43;100570.84;;;10.88;71.17
70011;BME280;59543;37.950;-122.338;2023-05-02T07:26:10;100575.84;;;11.01;70.03
70011;BME280;59543;37.950;-122.338;2023-05-02T07:28:36;100578.78;;;10.90;70.55
70011;BME280;59543;37.950;-122.338;2023-05-02T07:31:03;100583.53;;;10.96;70.71
70011;BME280;59543;37.950;-122.338;2023-05-02T07:33:29;100582.59;;;11.05;71.04
70011;BME280;59543;37.950;-122.338;2023-05-02T07:35:55;100586.28;;;11.04;71.66
70011;BME280;59543;37.950;-122.338;2023-05-02T07:38:21;100579.59;;;11.08;71.46
70011;BME280;59543;37.950;-122.338;2023-05-02T07:40:48;100576.28;;;11.14;71.07
70011;BME280;59543;37.950;-122.338;2023-05-02T07:43:14;100581.97;;;11.11;71.42
70011;BME280;59543;37.950;-122.338;2023-05-02T07:45:41;100578.56;;;11.09;71.04
70011;BME280;59543;37.950;-122.338;2023-05-02T07:48:07;100576.16;;;10.80;73.09
70011;BME280;59543;37.950;-122.338;2023-05-02T07:50:33;100575.59;;;10.94;72.14
70011;BME280;59543;37.950;-122.338;2023-05-02T07:52:59;100571.59;;;10.98;71.93
70011;BME280;59543;37.950;-122.338;2023-05-02T07:55:25;100578.69;;;10.64;73.83
70011;BME280;59543;37.950;-122.338;2023-05-02T07:57:52;100577.06;;;10.89;72.46
70011;BME280;59543;37.950;-122.338;2023-05-02T08:00:18;100575.97;;;10.99;71.66
70011;BME280;59543;37.950;-122.338;2023-05-02T08:02:45;100571.38;;;10.92;71.66
70011;BME280;59543;37.950;-122.338;2023-05-02T08:05:11;100574.84;;;10.84;72.21
70011;BME280;59543;37.950;-122.338;2023-05-02T08:07:38;100571.94;;;10.78;72.15
70011;BME280;59543;37.950;-122.338;2023-05-02T08:10:05;100570.63;;;10.64;72.55
70011;BME280;59543;37.950;-122.338;2023-05-02T08:12:31;100571.00;;;10.87;71.40
70011;BME280;59543;37.950;-122.338;2023-05-02T08:14:58;100574.09;;;10.74;72.34
70011;BME280;59543;37.950;-122.338;2023-05-02T08:17:24;100563.78;;;10.51;73.31
70011;BME280;59543;37.950;-122.338;2023-05-02T08:19:50;100564.78;;;10.68;72.54
70011;BME280;59543;37.950;-122.338;2023-05-02T08:22:16;100570.78;;;10.62;73.06
70011;BME280;59543;37.950;-122.338;2023-05-02T08:24:42;100568.41;;;10.59;73.40
70011;BME280;59543;37.950;-122.338;2023-05-02T08:27:09;100560.94;;;10.53;74.65
70011;BME280;59543;37.950;-122.338;2023-05-02T08:29:35;100557.16;;;10.64;73.69
70011;BME280;59543;37.950;-122.338;2023-05-02T08:32:01;100554.25;;;10.57;74.27
70011;BME280;59543;37.950;-122.338;2023-05-02T08:34:27;100551.31;;;10.86;72.63
70011;BME280;59543;37.950;-122.338;2023-05-02T08:36:53;100545.66;;;10.71;73.38
70011;BME280;59543;37.950;-122.338;2023-05-02T08:39:20;100544.09;;;10.69;73.85
70011;BME280;59543;37.950;-122.338;2023-05-02T08:41:46;100543.31;;;10.41;75.07
70011;BME280;59543;37.950;-122.338;2023-05-02T08:44:12;100543.00;;;10.62;73.92
70011;BME280;59543;37.950;-122.338;2023-05-02T08:46:40;100539.66;;;10.60;73.84
70011;BME280;59543;37.950;-122.338;2023-05-02T08:49:10;100540.06;;;10.47;74.58
70011;BME280;59543;37.950;-122.338;2023-05-02T08:51:36;100541.50;;;10.59;74.20
70011;BME280;59543;37.950;-122.338;2023-05-02T08:54:05;100536.03;;;10.51;74.03
70011;BME280;59543;37.950;-122.338;2023-05-02T08:56:34;100539.44;;;10.53;74.52
70011;BME280;59543;37.950;-122.338;2023-05-02T08:59:00;100536.81;;;10.61;74.28
70011;BME280;59543;37.950;-122.338;2023-05-02T09:01:29;100534.38;;;10.50;75.02
70011;BME280;59543;37.950;-122.338;2023-05-02T09:03:56;100538.13;;;10.57;74.50
70011;BME280;59543;37.950;-122.338;2023-05-02T09:06:25;100542.56;;;10.48;74.96
70011;BME280;59543;37.950;-122.338;2023-05-02T09:08:51;100533.50;;;10.49;74.71
70011;BME280;59543;37.950;-122.338;2023-05-02T09:11:18;100539.13;;;10.56;74.85
70011;BME280;59543;37.950;-122.338;2023-05-02T09:13:47;100532.66;;;10.49;74.90
70011;BME280;59543;37.950;-122.338;2023-05-02T09:16:15;100529.28;;;10.47;74.91
70011;BME280;59543;37.950;-122.338;2023-05-02T09:18:46;100537.56;;;10.36;75.86
70011;BME280;59543;37.950;-122.338;2023-05-02T09:21:22;100539.75;;;10.50;75.09
70011;BME280;59543;37.950;-122.338;2023-05-02T09:23:51;100529.00;;;10.50;75.07
70011;BME280;59543;37.950;-122.338;2023-05-02T09:28:48;100526.53;;;10.57;74.54
70011;BME280;59543;37.950;-122.338;2023-05-02T09:31:17;100539.25;;;10.55;74.78
70011;BME280;59543;37.950;-122.338;2023-05-02T09:33:44;100533.75;;;10.56;74.78
70011;BME280;59543;37.950;-122.338;2023-05-02T09:36:15;100542.50;;;10.58;74.65
70011;BME280;59543;37.950;-122.338;2023-05-02T09:38:43;100538.66;;;10.43;75.76
70011;BME280;59543;37.950;-122.338;2023-05-02T09:41:10;100538.56;;;10.35;76.53
70011;BME280;59543;37.950;-122.338;2023-05-02T09:43:37;100535.91;;;10.25;76.59
70011;BME280;59543;37.950;-122.338;2023-05-02T09:46:08;100542.88;;;10.27;77.12
70011;BME280;59543;37.950;-122.338;2023-05-02T09:48:56;100546.72;;;10.43;75.96
70011;BME280;59543;37.950;-122.338;2023-05-02T09:51:24;100544.41;;;10.48;75.34
70011;BME280;59543;37.950;-122.338;2023-05-02T09:53:51;100543.94;;;10.52;75.50
70011;BME280;59543;37.950;-122.338;2023-05-02T09:56:18;100543.50;;;10.57;75.51
70011;BME280;59543;37.950;-122.338;2023-05-02T09:58:44;100551.25;;;10.42;75.96
70011;BME280;59543;37.950;-122.338;2023-05-02T10:01:14;100540.19;;;10.45;75.96
70011;BME280;59543;37.950;-122.338;2023-05-02T10:03:45;100547.56;;;10.43;76.78
70011;BME280;59543;37.950;-122.338;2023-05-02T10:06:17;100544.94;;;10.51;78.00
70011;BME280;59543;37.950;-122.338;2023-05-02T10:08:44;100550.56;;;10.58;79.08
70011;BME280;59543;37.950;-122.338;2023-05-02T10:11:12;100551.31;;;10.33;81.62
70011;BME280;59543;37.950;-122.338;2023-05-02T10:13:40;100556.44;;;10.26;83.62
70011;BME280;59543;37.950;-122.338;2023-05-02T10:16:10;100566.56;;;10.14;85.03
70011;BME280;59543;37.950;-122.338;2023-05-02T10:21:26;100564.38;;;10.00;87.15
70011;BME280;59543;37.950;-122.338;2023-05-02T10:23:53;100558.38;;;10.06;87.63
70011;BME280;59543;37.950;-122.338;2023-05-02T10:26:20;100560.66;;;10.01;88.31
70011;BME280;59543;37.950;-122.338;2023-05-02T10:28:49;100564.91;;;10.03;87.73
70011;BME280;59543;37.950;-122.338;2023-05-02T10:31:17;100571.66;;;10.07;87.67
70011;BME280;59543;37.950;-122.338;2023-05-02T10:33:43;100574.31;;;10.17;86.47
70011;BME280;59543;37.950;-122.338;2023-05-02T10:36:11;100566.63;;;10.22;86.53
70011;BME280;59543;37.950;-122.338;2023-05-02T10:38:38;100569.19;;;10.24;85.93
70011;BME280;59543;37.950;-122.338;2023-05-02T10:41:09;100565.69;;;10.14;85.82
70011;BME280;59543;37.950;-122.338;2023-05-02T10:43:37;100563.88;;;10.14;85.55
70011;BME280;59543;37.950;-122.338;2023-05-02T10:46:30;100565.50;;;9.97;88.15
70011;BME280;59543;37.950;-122.338;2023-05-02T10:51:28;100566.81;;;9.93;87.65
70011;BME280;59543;37.950;-122.338;2023-05-02T10:59:41;100567.84;;;10.10;85.37
70011;BME280;59543;37.950;-122.338;2023-05-02T11:05:00;100565.59;;;10.05;85.73
70011;BME280;59543;37.950;-122.338;2023-05-02T11:07:28;100568.19;;;9.97;86.54
70011;BME280;59543;37.950;-122.338;2023-05-02T11:20:38;100564.13;;;9.93;87.39
70011;BME280;59543;37.950;-122.338;2023-05-02T11:31:52;100567.13;;;9.80;86.41
70011;BME280;59543;37.950;-122.338;2023-05-02T11:33:57;100564.06;;;9.75;86.92
70011;BME280;59543;37.950;-122.338;2023-05-02T11:36:32;100560.91;;;9.80;86.27
70011;BME280;59543;37.950;-122.338;2023-05-02T11:39:00;100571.00;;;9.68;86.39
70011;BME280;59543;37.950;-122.338;2023-05-02T11:41:42;100560.88;;;9.52;87.17
70011;BME280;59543;37.950;-122.338;2023-05-02T11:44:09;100566.13;;;9.54;87.31
70011;BME280;59543;37.950;-122.338;2023-05-02T11:46:39;100561.44;;;9.56;86.61
70011;BME280;59543;37.950;-122.338;2023-05-02T11:49:06;100559.28;;;9.59;86.21
70011;BME280;59543;37.950;-122.338;2023-05-02T11:51:38;100562.88;;;9.50;86.88
70011;BME280;59543;37.950;-122.338;2023-05-02T11:54:04;100560.63;;;9.46;86.77
70011;BME280;59543;37.950;-122.338;2023-05-02T11:56:32;100563.16;;;9.47;86.76
70011;BME280;59543;37.950;-122.338;2023-05-02T11:58:59;100561.50;;;9.36;87.43
70011;BME280;59543;37.950;-122.338;2023-05-02T12:01:26;100555.75;;;9.22;88.19
70011;BME280;59543;37.950;-122.338;2023-05-02T12:04:06;100551.75;;;9.35;87.41
70011;BME280;59543;37.950;-122.338;2023-05-02T12:06:33;100560.09;;;9.32;87.25
70011;BME280;59543;37.950;-122.338;2023-05-02T12:09:13;100553.78;;;9.24;87.65
70011;BME280;59543;37.950;-122.338;2023-05-02T12:11:42;100558.03;;;9.16;87.65
70011;BME280;59543;37.950;-122.338;2023-05-02T12:14:08;100559.00;;;9.25;87.00
70011;BME280;59543;37.950;-122.338;2023-05-02T12:16:36;100563.41;;;9.07;88.35
70011;BME280;59543;37.950;-122.338;2023-05-02T12:19:02;100554.81;;;9.03;88.23
70011;BME280;59543;37.950;-122.338;2023-05-02T12:21:29;100564.97;;;9.09;88.13
70011;BME280;59543;37.950;-122.338;2023-05-02T12:23:58;100565.09;;;9.08;87.87
70011;BME280;59543;37.950;-122.338;2023-05-02T12:26:25;100569.50;;;9.09;87.73
70011;BME280;59543;37.950;-122.338;2023-05-02T12:28:57;100568.34;;;9.02;86.95
70011;BME280;59543;37.950;-122.338;2023-05-02T12:31:24;100567.78;;;9.08;86.97
70011;BME280;59543;37.950;-122.338;2023-05-02T12:33:52;100570.31;;;9.09;87.63
70011;BME280;59543;37.950;-122.338;2023-05-02T12:36:22;100562.97;;;9.11;87.14
70011;BME280;59543;37.950;-122.338;2023-05-02T12:38:53;100572.16;;;9.09;87.21
70011;BME280;59543;37.950;-122.338;2023-05-02T12:41:35;100573.88;;;9.00;88.76
70011;BME280;59543;37.950;-122.338;2023-05-02T12:44:02;100583.47;;;9.03;88.91
70011;BME280;59543;37.950;-122.338;2023-05-02T12:46:29;100580.22;;;8.89;89.47
70011;BME280;59543;37.950;-122.338;2023-05-02T12:49:06;100579.09;;;9.02;89.45
70011;BME280;59543;37.950;-122.338;2023-05-02T12:51:39;100578.38;;;9.09;89.46
70011;BME280;59543;37.950;-122.338;2023-05-02T12:54:06;100586.97;;;9.13;88.83
70011;BME280;59543;37.950;-122.338;2023-05-02T12:56:39;100590.53;;;9.04;90.26
70011;BME280;59543;37.950;-122.338;2023-05-02T12:59:06;100592.63;;;9.10;90.29
70011;BME280;59543;37.950;-122.338;2023-05-02T13:01:33;100596.31;;;8.99;90.86
70011;BME280;59543;37.950;-122.338;2023-05-02T13:03:59;100600.00;;;8.98;91.55
70011;BME280;59543;37.950;-122.338;2023-05-02T13:06:25;100607.34;;;9.06;91.33
70011;BME280;59543;37.950;-122.338;2023-05-02T13:08:52;100611.25;;;9.11;91.17
70011;BME280;59543;37.950;-122.338;2023-05-02T13:11:18;100615.94;;;9.09;91.23
70011;BME280;59543;37.950;-122.338;2023-05-02T13:13:45;100615.50;;;9.14;91.50
70011;BME280;59543;37.950;-122.338;2023-05-02T13:16:11;100617.78;;;9.19;90.67
70011;BME280;59543;37.950;-122.338;2023-05-02T13:18:37;100619.59;;;9.08;90.81
70011;BME280;59543;37.950;-122.338;2023-05-02T13:21:03;100622.44;;;9.07;91.36
70011;BME280;59543;37.950;-122.338;2023-05-02T13:23:30;100634.00;;;9.27;89.14
70011;BME280;59543;37.950;-122.338;2023-05-02T13:25:56;100632.88;;;9.20;89.15
70011;BME280;59543;37.950;-122.338;2023-05-02T13:28:23;100636.53;;;9.28;88.06